KHWO/HWO METAR and TAF weather

Enter ICAO airport designator
Station Type Date Time Source
KHWO METAR 2021/05/10 00:53 UTC NOAA

KHWO 100053Z AUTO 12009KT 10SM FEW021 26/22 A3009 RMK AO2 SLP188 T02610222 $


Station Type Date Time Source
KHWO Decoded METAR 2021/05/10 00:53 UTC NOAA

HOLLYWOOD NORTH PERRY AIRPORT , FL, United States (KHWO) 26-00N 080-14W 2M
May 09, 2021 - 08:53 PM EDT / 2021.05.10 0053 UTC
Wind: from the ESE (120 degrees) at 10 MPH (9 KT):0
Visibility: 10 mile(s):0
Sky conditions: mostly clear
Temperature: 79.0 F (26.1 C)
Dew Point: 72.0 F (22.2 C)
Relative Humidity: 79%
Pressure (altimeter): 30.09 in. Hg (1018 hPa)
ob: KHWO 100053Z AUTO 12009KT 10SM FEW021 26/22 A3009 RMK AO2 SLP188 T02610222
cycle: 1

Station Type Date Time Source
KHWO TAF 2020/02/03 18:20 UTC NOAA

TAF KHWO 031720Z 0318/0418 12005KT P6SM SKC
FM040000 VRB03KT P6SM SKC
FM041500 14010KT P6SM FEW030

Example: see airport list